sensor_id;sensor_type;location;lat;lon;timestamp;temperature;humidity
67005;HTU21D;53920;51.094;5.902;2023-07-13T00:00:04;17.59;56.99
67005;HTU21D;53920;51.094;5.902;2023-07-13T00:02:40;17.50;57.22
67005;HTU21D;53920;51.094;5.902;2023-07-13T00:05:07;17.44;57.42
67005;HTU21D;53920;51.094;5.902;2023-07-13T00:07:33;17.35;57.70
67005;HTU21D;53920;51.094;5.902;2023-07-13T00:09:59;17.25;58.02
67005;HTU21D;53920;51.094;5.902;2023-07-13T00:14:57;17.16;58.45
67005;HTU21D;53920;51.094;5.902;2023-07-13T00:17:23;17.11;58.61
67005;HTU21D;53920;51.094;5.902;2023-07-13T00:19:49;17.07;58.76
67005;HTU21D;53920;51.094;5.902;2023-07-13T00:22:15;17.07;58.86
67005;HTU21D;53920;51.094;5.902;2023-07-13T00:24:41;17.06;58.95
67005;HTU21D;53920;51.094;5.902;2023-07-13T00:27:10;17.08;59.02
67005;HTU21D;53920;51.094;5.902;2023-07-13T00:29:36;17.04;59.24
67005;HTU21D;53920;51.094;5.902;2023-07-13T00:32:04;17.06;59.25
67005;HTU21D;53920;51.094;5.902;2023-07-13T00:34:30;17.09;59.32
67005;HTU21D;53920;51.094;5.902;2023-07-13T00:36:56;17.10;59.35
67005;HTU21D;53920;51.094;5.902;2023-07-13T00:39:22;17.14;59.39
67005;HTU21D;53920;51.094;5.902;2023-07-13T00:41:48;17.16;59.51
67005;HTU21D;53920;51.094;5.902;2023-07-13T00:44:16;17.14;59.57
67005;HTU21D;53920;51.094;5.902;2023-07-13T00:46:42;17.11;59.67
67005;HTU21D;53920;51.094;5.902;2023-07-13T00:49:13;17.03;59.88
67005;HTU21D;53920;51.094;5.902;2023-07-13T00:52:07;17.00;60.04
67005;HTU21D;53920;51.094;5.902;2023-07-13T00:54:39;16.96;60.18
67005;HTU21D;53920;51.094;5.902;2023-07-13T00:57:10;16.96;60.31
67005;HTU21D;53920;51.094;5.902;2023-07-13T00:59:43;16.91;60.54
67005;HTU21D;53920;51.094;5.902;2023-07-13T01:02:11;16.89;60.76
67005;HTU21D;53920;51.094;5.902;2023-07-13T01:04:37;16.88;60.91
67005;HTU21D;53920;51.094;5.902;2023-07-13T01:07:06;16.86;61.10
67005;HTU21D;53920;51.094;5.902;2023-07-13T01:09:32;16.86;61.25
67005;HTU21D;53920;51.094;5.902;2023-07-13T01:11:58;16.80;61.39
67005;HTU21D;53920;51.094;5.902;2023-07-13T01:14:25;16.79;61.50
67005;HTU21D;53920;51.094;5.902;2023-07-13T01:16:51;16.76;61.68
67005;HTU21D;53920;51.094;5.902;2023-07-13T01:22:04;16.73;62.00
67005;HTU21D;53920;51.094;5.902;2023-07-13T01:24:36;16.74;62.09
67005;HTU21D;53920;51.094;5.902;2023-07-13T01:27:02;16.74;62.17
67005;HTU21D;53920;51.094;5.902;2023-07-13T01:29:30;16.71;62.24
67005;HTU21D;53920;51.094;5.902;2023-07-13T01:31:56;16.67;62.41
67005;HTU21D;53920;51.094;5.902;2023-07-13T01:34:26;16.61;62.57
67005;HTU21D;53920;51.094;5.902;2023-07-13T01:36:52;16.55;62.82
67005;HTU21D;53920;51.094;5.902;2023-07-13T01:39:22;16.48;63.02
67005;HTU21D;53920;51.094;5.902;2023-07-13T01:41:49;16.49;63.11
67005;HTU21D;53920;51.094;5.902;2023-07-13T01:44:16;16.46;63.33
67005;HTU21D;53920;51.094;5.902;2023-07-13T01:46:41;16.42;63.46
67005;HTU21D;53920;51.094;5.902;2023-07-13T01:49:07;16.45;63.56
67005;HTU21D;53920;51.094;5.902;2023-07-13T01:51:33;16.47;63.58
67005;HTU21D;53920;51.094;5.902;2023-07-13T01:53:59;16.47;63.64
67005;HTU21D;53920;51.094;5.902;2023-07-13T01:56:25;16.49;63.69
67005;HTU21D;53920;51.094;5.902;2023-07-13T01:58:52;16.50;63.82
67005;HTU21D;53920;51.094;5.902;2023-07-13T02:01:18;16.50;63.92
67005;HTU21D;53920;51.094;5.902;2023-07-13T02:03:44;16.47;64.05
67005;HTU21D;53920;51.094;5.902;2023-07-13T02:06:09;16.44;64.18
67005;HTU21D;53920;51.094;5.902;2023-07-13T02:08:37;16.39;64.37
67005;HTU21D;53920;51.094;5.902;2023-07-13T02:11:03;16.35;64.49
67005;HTU21D;53920;51.094;5.902;2023-07-13T02:13:29;16.31;64.64
67005;HTU21D;53920;51.094;5.902;2023-07-13T02:15:54;16.30;64.71
67005;HTU21D;53920;51.094;5.902;2023-07-13T02:18:20;16.27;64.81
67005;HTU21D;53920;51.094;5.902;2023-07-13T02:20:46;16.20;65.05
67005;HTU21D;53920;51.094;5.902;2023-07-13T02:23:12;16.19;65.16
67005;HTU21D;53920;51.094;5.902;2023-07-13T02:25:38;16.17;65.31
67005;HTU21D;53920;51.094;5.902;2023-07-13T02:28:04;16.11;65.50
67005;HTU21D;53920;51.094;5.902;2023-07-13T02:30:30;16.13;65.50
67005;HTU21D;53920;51.094;5.902;2023-07-13T02:32:57;16.07;65.79
67005;HTU21D;53920;51.094;5.902;2023-07-13T02:35:23;16.06;65.85
67005;HTU21D;53920;51.094;5.902;2023-07-13T02:37:49;16.04;65.98
67005;HTU21D;53920;51.094;5.902;2023-07-13T02:40:15;16.00;66.14
67005;HTU21D;53920;51.094;5.902;2023-07-13T02:42:41;16.00;66.25
67005;HTU21D;53920;51.094;5.902;2023-07-13T02:45:08;15.92;66.51
67005;HTU21D;53920;51.094;5.902;2023-07-13T02:47:35;15.88;66.66
67005;HTU21D;53920;51.094;5.902;2023-07-13T02:50:02;15.83;66.89
67005;HTU21D;53920;51.094;5.902;2023-07-13T02:52:29;15.83;66.96
67005;HTU21D;53920;51.094;5.902;2023-07-13T02:54:55;15.81;67.10
67005;HTU21D;53920;51.094;5.902;2023-07-13T02:57:23;15.80;67.27
67005;HTU21D;53920;51.094;5.902;2023-07-13T02:59:49;15.80;67.32
67005;HTU21D;53920;51.094;5.902;2023-07-13T03:02:15;15.76;67.52
67005;HTU21D;53920;51.094;5.902;2023-07-13T03:04:41;15.78;67.49
67005;HTU21D;53920;51.094;5.902;2023-07-13T03:07:07;15.76;67.62
67005;HTU21D;53920;51.094;5.902;2023-07-13T03:09:36;15.81;67.61
67005;HTU21D;53920;51.094;5.902;2023-07-13T03:12:04;15.81;67.72
67005;HTU21D;53920;51.094;5.902;2023-07-13T03:14:32;15.86;67.68
67005;HTU21D;53920;51.094;5.902;2023-07-13T03:16:59;15.85;67.73
67005;HTU21D;53920;51.094;5.902;2023-07-13T03:19:28;15.87;67.73
67005;HTU21D;53920;51.094;5.902;2023-07-13T03:21:54;15.83;67.98
67005;HTU21D;53920;51.094;5.902;2023-07-13T03:24:21;15.85;67.98
67005;HTU21D;53920;51.094;5.902;2023-07-13T03:26:51;15.84;68.12
67005;HTU21D;53920;51.094;5.902;2023-07-13T03:29:17;15.85;68.21
67005;HTU21D;53920;51.094;5.902;2023-07-13T03:31:44;15.89;68.13
67005;HTU21D;53920;51.094;5.902;2023-07-13T03:34:10;15.89;68.16
67005;HTU21D;53920;51.094;5.902;2023-07-13T03:36:37;15.89;68.26
67005;HTU21D;53920;51.094;5.902;2023-07-13T03:39:06;15.91;68.36
67005;HTU21D;53920;51.094;5.902;2023-07-13T03:41:54;15.96;68.31
67005;HTU21D;53920;51.094;5.902;2023-07-13T03:44:20;15.98;68.36
67005;HTU21D;53920;51.094;5.902;2023-07-13T03:46:49;15.98;68.37
67005;HTU21D;53920;51.094;5.902;2023-07-13T03:49:15;16.02;68.33
67005;HTU21D;53920;51.094;5.902;2023-07-13T03:51:41;16.03;68.30
67005;HTU21D;53920;51.094;5.902;2023-07-13T03:54:07;16.08;68.21
67005;HTU21D;53920;51.094;5.902;2023-07-13T03:56:33;16.07;68.26
67005;HTU21D;53920;51.094;5.902;2023-07-13T03:59:01;16.07;68.26
67005;HTU21D;53920;51.094;5.902;2023-07-13T04:01:29;16.12;68.23
67005;HTU21D;53920;51.094;5.902;2023-07-13T04:03:55;16.12;68.39
67005;HTU21D;53920;51.094;5.902;2023-07-13T04:06:30;16.13;68.35
67005;HTU21D;53920;51.094;5.902;2023-07-13T04:08:59;16.13;68.42
67005;HTU21D;53920;51.094;5.902;2023-07-13T04:11:29;16.10;68.51
67005;HTU21D;53920;51.094;5.902;2023-07-13T04:13:55;16.10;68.58
67005;HTU21D;53920;51.094;5.902;2023-07-13T04:16:22;16.07;68.65
67005;HTU21D;53920;51.094;5.902;2023-07-13T04:18:48;16.02;68.84
67005;HTU21D;53920;51.094;5.902;2023-07-13T04:21:15;16.02;68.94
67005;HTU21D;53920;51.094;5.902;2023-07-13T04:23:42;16.07;68.98
67005;HTU21D;53920;51.094;5.902;2023-07-13T04:26:08;16.08;69.08
67005;HTU21D;53920;51.094;5.902;2023-07-13T04:28:34;16.05;69.16
67005;HTU21D;53920;51.094;5.902;2023-07-13T04:31:01;16.08;69.18
67005;HTU21D;53920;51.094;5.902;2023-07-13T04:33:27;16.06;69.39
67005;HTU21D;53920;51.094;5.902;2023-07-13T04:35:54;16.05;69.51
67005;HTU21D;53920;51.094;5.902;2023-07-13T04:38:24;16.06;69.53
67005;HTU21D;53920;51.094;5.902;2023-07-13T04:40:51;16.12;69.50
67005;HTU21D;53920;51.094;5.902;2023-07-13T04:43:18;16.13;69.57
67005;HTU21D;53920;51.094;5.902;2023-07-13T04:45:43;16.18;69.52
67005;HTU21D;53920;51.094;5.902;2023-07-13T04:48:09;16.19;69.62
67005;HTU21D;53920;51.094;5.902;2023-07-13T04:50:38;16.22;69.60
67005;HTU21D;53920;51.094;5.902;2023-07-13T04:53:04;16.32;69.41
67005;HTU21D;53920;51.094;5.902;2023-07-13T04:55:31;16.35;69.27
67005;HTU21D;53920;51.094;5.902;2023-07-13T04:57:57;16.36;69.38
67005;HTU21D;53920;51.094;5.902;2023-07-13T05:00:25;16.41;69.33
67005;HTU21D;53920;51.094;5.902;2023-07-13T05:02:51;16.43;69.38
67005;HTU21D;53920;51.094;5.902;2023-07-13T05:05:17;16.39;69.46
67005;HTU21D;53920;51.094;5.902;2023-07-13T05:07:43;16.42;69.42
67005;HTU21D;53920;51.094;5.902;2023-07-13T05:10:09;16.43;69.42
67005;HTU21D;53920;51.094;5.902;2023-07-13T05:12:35;16.47;69.36
67005;HTU21D;53920;51.094;5.902;2023-07-13T05:15:02;16.54;69.33
67005;HTU21D;53920;51.094;5.902;2023-07-13T05:17:29;16.64;69.09
67005;HTU21D;53920;51.094;5.902;2023-07-13T05:19:55;16.77;68.95
67005;HTU21D;53920;51.094;5.902;2023-07-13T05:22:21;16.93;68.49
67005;HTU21D;53920;51.094;5.902;2023-07-13T05:24:46;17.15;68.02
67005;HTU21D;53920;51.094;5.902;2023-07-13T05:27:12;17.35;67.56
67005;HTU21D;53920;51.094;5.902;2023-07-13T05:29:38;17.61;66.82
67005;HTU21D;53920;51.094;5.902;2023-07-13T05:32:04;17.78;66.43
67005;HTU21D;53920;51.094;5.902;2023-07-13T05:34:32;17.83;66.20
67005;HTU21D;53920;51.094;5.902;2023-07-13T05:36:58;17.93;65.89
67005;HTU21D;53920;51.094;5.902;2023-07-13T05:39:23;17.97;65.66
67005;HTU21D;53920;51.094;5.902;2023-07-13T05:41:50;17.97;65.66
67005;HTU21D;53920;51.094;5.902;2023-07-13T05:44:16;17.98;65.53
67005;HTU21D;53920;51.094;5.902;2023-07-13T05:46:41;17.98;65.47
67005;HTU21D;53920;51.094;5.902;2023-07-13T05:49:07;18.00;65.34
67005;HTU21D;53920;51.094;5.902;2023-07-13T05:51:33;17.92;65.51
67005;HTU21D;53920;51.094;5.902;2023-07-13T05:53:59;17.88;65.64
67005;HTU21D;53920;51.094;5.902;2023-07-13T05:56:25;17.84;65.65
67005;HTU21D;53920;51.094;5.902;2023-07-13T05:58:52;17.95;65.53
67005;HTU21D;53920;51.094;5.902;2023-07-13T06:01:18;18.11;65.13
67005;HTU21D;53920;51.094;5.902;2023-07-13T06:03:47;18.14;64.94
67005;HTU21D;53920;51.094;5.902;2023-07-13T06:06:13;18.20;64.78
67005;HTU21D;53920;51.094;5.902;2023-07-13T06:08:39;18.27;64.77
67005;HTU21D;53920;51.094;5.902;2023-07-13T06:11:08;18.46;64.37
67005;HTU21D;53920;51.094;5.902;2023-07-13T06:13:35;18.58;64.06
67005;HTU21D;53920;51.094;5.902;2023-07-13T06:16:03;18.52;64.14
67005;HTU21D;53920;51.094;5.902;2023-07-13T06:18:34;18.53;64.04
67005;HTU21D;53920;51.094;5.902;2023-07-13T06:21:00;18.70;63.63
67005;HTU21D;53920;51.094;5.902;2023-07-13T06:23:26;18.83;63.32
67005;HTU21D;53920;51.094;5.902;2023-07-13T06:25:52;18.93;63.11
67005;HTU21D;53920;51.094;5.902;2023-07-13T06:28:18;19.02;62.91
67005;HTU21D;53920;51.094;5.902;2023-07-13T06:30:44;19.12;62.73
67005;HTU21D;53920;51.094;5.902;2023-07-13T06:33:10;19.12;62.59
67005;HTU21D;53920;51.094;5.902;2023-07-13T06:35:35;19.11;62.69
67005;HTU21D;53920;51.094;5.902;2023-07-13T06:38:01;19.20;62.43
67005;HTU21D;53920;51.094;5.902;2023-07-13T06:40:28;19.15;62.63
67005;HTU21D;53920;51.094;5.902;2023-07-13T06:42:54;19.21;62.54
67005;HTU21D;53920;51.094;5.902;2023-07-13T06:45:20;19.32;62.27
67005;HTU21D;53920;51.094;5.902;2023-07-13T06:47:46;19.44;62.06
67005;HTU21D;53920;51.094;5.902;2023-07-13T06:50:12;19.47;61.97
67005;HTU21D;53920;51.094;5.902;2023-07-13T06:52:37;19.54;61.92
67005;HTU21D;53920;51.094;5.902;2023-07-13T06:55:04;19.74;61.56
67005;HTU21D;53920;51.094;5.902;2023-07-13T06:57:29;19.90;61.16
67005;HTU21D;53920;51.094;5.902;2023-07-13T06:59:55;19.80;61.18
67005;HTU21D;53920;51.094;5.902;2023-07-13T07:02:21;19.80;61.33
67005;HTU21D;53920;51.094;5.902;2023-07-13T07:04:47;19.87;61.18
67005;HTU21D;53920;51.094;5.902;2023-07-13T07:07:13;19.74;61.27
67005;HTU21D;53920;51.094;5.902;2023-07-13T07:09:39;19.62;61.58
67005;HTU21D;53920;51.094;5.902;2023-07-13T07:12:05;19.72;61.31
67005;HTU21D;53920;51.094;5.902;2023-07-13T07:14:31;19.90;61.06
67005;HTU21D;53920;51.094;5.902;2023-07-13T07:16:58;20.03;60.77
67005;HTU21D;53920;51.094;5.902;2023-07-13T07:19:27;20.01;60.78
67005;HTU21D;53920;51.094;5.902;2023-07-13T07:21:53;20.03;60.72
67005;HTU21D;53920;51.094;5.902;2023-07-13T07:24:18;19.99;60.77
67005;HTU21D;53920;51.094;5.902;2023-07-13T07:26:44;19.97;60.99
67005;HTU21D;53920;51.094;5.902;2023-07-13T07:29:10;20.03;60.89
67005;HTU21D;53920;51.094;5.902;2023-07-13T07:31:36;19.90;61.09
67005;HTU21D;53920;51.094;5.902;2023-07-13T07:34:03;20.04;60.99
67005;HTU21D;53920;51.094;5.902;2023-07-13T07:36:28;20.20;60.47
67005;HTU21D;53920;51.094;5.902;2023-07-13T07:38:54;20.19;60.54
67005;HTU21D;53920;51.094;5.902;2023-07-13T07:41:20;20.15;60.58
67005;HTU21D;53920;51.094;5.902;2023-07-13T07:43:46;20.13;60.63
67005;HTU21D;53920;51.094;5.902;2023-07-13T07:46:12;19.99;60.97
67005;HTU21D;53920;51.094;5.902;2023-07-13T07:48:38;20.01;61.05
67005;HTU21D;53920;51.094;5.902;2023-07-13T07:51:03;19.99;60.99
67005;HTU21D;53920;51.094;5.902;2023-07-13T07:53:30;20.04;60.86
67005;HTU21D;53920;51.094;5.902;2023-07-13T07:55:55;20.15;60.75
67005;HTU21D;53920;51.094;5.902;2023-07-13T07:58:22;20.30;60.44
67005;HTU21D;53920;51.094;5.902;2023-07-13T08:00:47;20.44;59.91
67005;HTU21D;53920;51.094;5.902;2023-07-13T08:03:13;20.46;59.80
67005;HTU21D;53920;51.094;5.902;2023-07-13T08:05:39;20.65;59.59
67005;HTU21D;53920;51.094;5.902;2023-07-13T08:08:05;20.86;58.74
67005;HTU21D;53920;51.094;5.902;2023-07-13T08:10:31;21.01;58.31
67005;HTU21D;53920;51.094;5.902;2023-07-13T08:12:57;20.93;58.29
67005;HTU21D;53920;51.094;5.902;2023-07-13T08:15:22;21.04;58.13
67005;HTU21D;53920;51.094;5.902;2023-07-13T08:17:49;21.37;57.58
67005;HTU21D;53920;51.094;5.902;2023-07-13T08:20:15;21.48;57.12
67005;HTU21D;53920;51.094;5.902;2023-07-13T08:22:41;21.59;56.95
67005;HTU21D;53920;51.094;5.902;2023-07-13T08:25:07;21.82;56.20
67005;HTU21D;53920;51.094;5.902;2023-07-13T08:27:33;21.85;55.76
67005;HTU21D;53920;51.094;5.902;2023-07-13T08:30:00;21.82;55.91
67005;HTU21D;53920;51.094;5.902;2023-07-13T08:32:26;22.11;55.29
67005;HTU21D;53920;51.094;5.902;2023-07-13T08:34:52;22.52;53.97
67005;HTU21D;53920;51.094;5.902;2023-07-13T08:37:19;22.87;52.91
67005;HTU21D;53920;51.094;5.902;2023-07-13T08:39:45;23.06;52.27
67005;HTU21D;53920;51.094;5.902;2023-07-13T08:42:31;23.10;52.06
67005;HTU21D;53920;51.094;5.902;2023-07-13T08:45:14;23.88;50.21
67005;HTU21D;53920;51.094;5.902;2023-07-13T08:47:49;24.63;47.99
67005;HTU21D;53920;51.094;5.902;2023-07-13T08:50:25;25.77;45.12
67005;HTU21D;53920;51.094;5.902;2023-07-13T08:52:56;26.32;43.36
67005;HTU21D;53920;51.094;5.902;2023-07-13T08:55:27;25.94;44.22
67005;HTU21D;53920;51.094;5.902;2023-07-13T08:58:02;26.47;43.10
67005;HTU21D;53920;51.094;5.902;2023-07-13T09:00:55;26.48;42.70
67005;HTU21D;53920;51.094;5.902;2023-07-13T09:03:30;25.90;43.87
67005;HTU21D;53920;51.094;5.902;2023-07-13T09:05:59;25.44;44.61
67005;HTU21D;53920;51.094;5.902;2023-07-13T09:11:28;26.97;41.57
67005;HTU21D;53920;51.094;5.902;2023-07-13T09:16:46;27.54;39.93
67005;HTU21D;53920;51.094;5.902;2023-07-13T09:19:21;28.24;38.40
67005;HTU21D;53920;51.094;5.902;2023-07-13T09:21:52;28.58;37.82
67005;HTU21D;53920;51.094;5.902;2023-07-13T09:24:39;30.13;34.97
67005;HTU21D;53920;51.094;5.902;2023-07-13T09:27:19;30.68;32.89
67005;HTU21D;53920;51.094;5.902;2023-07-13T09:32:51;31.42;31.48
67005;HTU21D;53920;51.094;5.902;2023-07-13T09:35:22;31.96;30.38
67005;HTU21D;53920;51.094;5.902;2023-07-13T09:37:50;32.07;29.80
67005;HTU21D;53920;51.094;5.902;2023-07-13T09:43:13;31.76;30.25
67005;HTU21D;53920;51.094;5.902;2023-07-13T09:45:39;31.13;31.33
67005;HTU21D;53920;51.094;5.902;2023-07-13T09:48:11;31.67;30.19
67005;HTU21D;53920;51.094;5.902;2023-07-13T09:50:38;31.69;29.90
67005;HTU21D;53920;51.094;5.902;2023-07-13T09:53:04;32.08;29.39
67005;HTU21D;53920;51.094;5.902;2023-07-13T09:55:41;31.70;29.58
67005;HTU21D;53920;51.094;5.902;2023-07-13T09:58:14;29.98;32.70
67005;HTU21D;53920;51.094;5.902;2023-07-13T10:00:43;29.18;34.34
67005;HTU21D;53920;51.094;5.902;2023-07-13T10:03:18;29.29;33.99
67005;HTU21D;53920;51.094;5.902;2023-07-13T10:05:48;28.30;35.62
67005;HTU21D;53920;51.094;5.902;2023-07-13T10:08:25;27.30;37.55
67005;HTU21D;53920;51.094;5.902;2023-07-13T10:11:20;26.64;38.83
67005;HTU21D;53920;51.094;5.902;2023-07-13T10:14:24;26.17;39.87
67005;HTU21D;53920;51.094;5.902;2023-07-13T10:16:45;25.74;41.00
67005;HTU21D;53920;51.094;5.902;2023-07-13T10:19:19;26.85;39.00
67005;HTU21D;53920;51.094;5.902;2023-07-13T10:22:02;28.44;35.98
67005;HTU21D;53920;51.094;5.902;2023-07-13T10:24:33;30.02;33.19
67005;HTU21D;53920;51.094;5.902;2023-07-13T10:27:20;31.12;30.94
67005;HTU21D;53920;51.094;5.902;2023-07-13T10:32:35;31.81;29.58
67005;HTU21D;53920;51.094;5.902;2023-07-13T10:35:01;31.37;30.27
67005;HTU21D;53920;51.094;5.902;2023-07-13T10:37:48;30.26;31.69
67005;HTU21D;53920;51.094;5.902;2023-07-13T10:40:27;28.64;34.05
67005;HTU21D;53920;51.094;5.902;2023-07-13T10:42:57;27.52;36.58
67005;HTU21D;53920;51.094;5.902;2023-07-13T10:45:26;28.63;34.75
67005;HTU21D;53920;51.094;5.902;2023-07-13T10:47:55;29.98;32.48
67005;HTU21D;53920;51.094;5.902;2023-07-13T10:50:25;30.69;30.71
67005;HTU21D;53920;51.094;5.902;2023-07-13T10:52:53;30.65;30.71
67005;HTU21D;53920;51.094;5.902;2023-07-13T10:58:35;30.77;30.30
67005;HTU21D;53920;51.094;5.902;2023-07-13T11:03:47;31.67;29.07
67005;HTU21D;53920;51.094;5.902;2023-07-13T11:06:39;31.50;29.22
67005;HTU21D;53920;51.094;5.902;2023-07-13T11:09:31;31.69;27.83
67005;HTU21D;53920;51.094;5.902;2023-07-13T11:12:06;31.52;28.56
67005;HTU21D;53920;51.094;5.902;2023-07-13T11:19:54;30.17;30.45
67005;HTU21D;53920;51.094;5.902;2023-07-13T11:25:33;28.32;32.58
67005;HTU21D;53920;51.094;5.902;2023-07-13T11:30:47;28.92;31.90
67005;HTU21D;53920;51.094;5.902;2023-07-13T11:33:44;29.72;30.40
67005;HTU21D;53920;51.094;5.902;2023-07-13T11:36:17;29.31;30.94
67005;HTU21D;53920;51.094;5.902;2023-07-13T11:41:58;29.18;31.25
67005;HTU21D;53920;51.094;5.902;2023-07-13T11:44:24;29.82;30.16
67005;HTU21D;53920;51.094;5.902;2023-07-13T11:46:53;30.63;29.09
67005;HTU21D;53920;51.094;5.902;2023-07-13T11:49:24;30.96;28.84
67005;HTU21D;53920;51.094;5.902;2023-07-13T11:51:51;31.53;27.91
67005;HTU21D;53920;51.094;5.902;2023-07-13T11:56:50;29.47;30.30
67005;HTU21D;53920;51.094;5.902;2023-07-13T11:59:16;28.77;31.68
67005;HTU21D;53920;51.094;5.902;2023-07-13T12:01:49;28.88;31.96
67005;HTU21D;53920;51.094;5.902;2023-07-13T12:04:31;29.20;31.31
67005;HTU21D;53920;51.094;5.902;2023-07-13T12:07:05;29.65;30.07
67005;HTU21D;53920;51.094;5.902;2023-07-13T12:09:34;29.96;29.13
67005;HTU21D;53920;51.094;5.902;2023-07-13T12:12:02;30.36;27.95
67005;HTU21D;53920;51.094;5.902;2023-07-13T12:14:28;30.25;28.16
67005;HTU21D;53920;51.094;5.902;2023-07-13T12:16:55;30.36;28.13
67005;HTU21D;53920;51.094;5.902;2023-07-13T12:19:26;29.68;28.87
67005;HTU21D;53920;51.094;5.902;2023-07-13T12:21:57;29.66;29.16
67005;HTU21D;53920;51.094;5.902;2023-07-13T12:24:24;29.31;30.13
67005;HTU21D;53920;51.094;5.902;2023-07-13T12:26:53;28.82;30.78
67005;HTU21D;53920;51.094;5.902;2023-07-13T12:29:19;28.04;31.85
67005;HTU21D;53920;51.094;5.902;2023-07-13T12:31:48;27.45;33.06
67005;HTU21D;53920;51.094;5.902;2023-07-13T12:34:20;27.43;33.59
67005;HTU21D;53920;51.094;5.902;2023-07-13T12:36:58;27.30;33.72
67005;HTU21D;53920;51.094;5.902;2023-07-13T12:39:45;27.04;33.70
67005;HTU21D;53920;51.094;5.902;2023-07-13T12:42:30;26.94;34.26
67005;HTU21D;53920;51.094;5.902;2023-07-13T12:45:24;27.00;34.15
67005;HTU21D;53920;51.094;5.902;2023-07-13T12:47:56;27.24;33.89
67005;HTU21D;53920;51.094;5.902;2023-07-13T12:50:34;27.43;33.85
67005;HTU21D;53920;51.094;5.902;2023-07-13T12:53:03;27.32;33.93
67005;HTU21D;53920;51.094;5.902;2023-07-13T12:55:30;27.31;33.96
67005;HTU21D;53920;51.094;5.902;2023-07-13T12:58:03;27.86;33.46
67005;HTU21D;53920;51.094;5.902;2023-07-13T13:00:36;28.57;32.11
67005;HTU21D;53920;51.094;5.902;2023-07-13T13:03:26;28.71;31.68
67005;HTU21D;53920;51.094;5.902;2023-07-13T13:08:41;27.74;32.80
67005;HTU21D;53920;51.094;5.902;2023-07-13T13:11:09;27.39;33.60
67005;HTU21D;53920;51.094;5.902;2023-07-13T13:13:35;27.02;34.46
67005;HTU21D;53920;51.094;5.902;2023-07-13T13:16:09;26.75;35.15
67005;HTU21D;53920;51.094;5.902;2023-07-13T13:18:36;26.43;35.12
67005;HTU21D;53920;51.094;5.902;2023-07-13T13:21:02;26.15;35.66
67005;HTU21D;53920;51.094;5.902;2023-07-13T13:23:28;26.17;36.23
67005;HTU21D;53920;51.094;5.902;2023-07-13T13:25:54;26.28;35.47
67005;HTU21D;53920;51.094;5.902;2023-07-13T13:28:21;26.30;35.24
67005;HTU21D;53920;51.094;5.902;2023-07-13T13:30:50;26.33;35.38
67005;HTU21D;53920;51.094;5.902;2023-07-13T13:33:19;26.26;35.37
67005;HTU21D;53920;51.094;5.902;2023-07-13T13:35:46;26.17;35.76
67005;HTU21D;53920;51.094;5.902;2023-07-13T13:38:17;26.12;35.93
67005;HTU21D;53920;51.094;5.902;2023-07-13T13:40:45;25.94;36.14
67005;HTU21D;53920;51.094;5.902;2023-07-13T13:43:26;25.44;37.06
67005;HTU21D;53920;51.094;5.902;2023-07-13T13:45:56;25.08;37.89
67005;HTU21D;53920;51.094;5.902;2023-07-13T13:48:41;24.66;38.39
67005;HTU21D;53920;51.094;5.902;2023-07-13T13:51:16;24.46;38.73
67005;HTU21D;53920;51.094;5.902;2023-07-13T13:53:43;24.44;38.92
67005;HTU21D;53920;51.094;5.902;2023-07-13T13:56:09;24.39;39.19
67005;HTU21D;53920;51.094;5.902;2023-07-13T13:58:35;24.31;39.63
67005;HTU21D;53920;51.094;5.902;2023-07-13T14:01:01;24.23;39.88
67005;HTU21D;53920;51.094;5.902;2023-07-13T14:03:27;24.09;40.42
67005;HTU21D;53920;51.094;5.902;2023-07-13T14:05:55;23.94;41.39
67005;HTU21D;53920;51.094;5.902;2023-07-13T14:08:22;23.61;42.57
67005;HTU21D;53920;51.094;5.902;2023-07-13T14:10:54;23.02;46.39
67005;HTU21D;53920;51.094;5.902;2023-07-13T14:13:27;22.50;48.37
67005;HTU21D;53920;51.094;5.902;2023-07-13T14:15:54;22.08;49.47
67005;HTU21D;53920;51.094;5.902;2023-07-13T14:18:21;21.93;49.77
67005;HTU21D;53920;51.094;5.902;2023-07-13T14:20:48;21.87;49.40
67005;HTU21D;53920;51.094;5.902;2023-07-13T14:23:15;21.79;50.02
67005;HTU21D;53920;51.094;5.902;2023-07-13T14:25:42;21.72;49.74
67005;HTU21D;53920;51.094;5.902;2023-07-13T14:30:40;21.76;50.15
67005;HTU21D;53920;51.094;5.902;2023-07-13T14:33:10;21.74;50.27
67005;HTU21D;53920;51.094;5.902;2023-07-13T14:35:37;21.65;50.74
67005;HTU21D;53920;51.094;5.902;2023-07-13T14:38:04;21.51;50.85
67005;HTU21D;53920;51.094;5.902;2023-07-13T14:40:31;21.42;50.98
67005;HTU21D;53920;51.094;5.902;2023-07-13T14:42:58;21.22;51.85
67005;HTU21D;53920;51.094;5.902;2023-07-13T14:45:25;21.07;51.82
67005;HTU21D;53920;51.094;5.902;2023-07-13T14:47:52;20.99;52.05
67005;HTU21D;53920;51.094;5.902;2023-07-13T14:50:32;20.93;52.12
67005;HTU21D;53920;51.094;5.902;2023-07-13T14:52:58;20.94;52.40
67005;HTU21D;53920;51.094;5.902;2023-07-13T14:55:24;20.99;52.04
67005;HTU21D;53920;51.094;5.902;2023-07-13T14:57:52;21.09;52.21
67005;HTU21D;53920;51.094;5.902;2023-07-13T15:00:20;21.15;52.10
67005;HTU21D;53920;51.094;5.902;2023-07-13T15:02:50;21.19;51.95
67005;HTU21D;53920;51.094;5.902;2023-07-13T15:05:22;21.20;51.98
67005;HTU21D;53920;51.094;5.902;2023-07-13T15:07:52;21.29;52.01
67005;HTU21D;53920;51.094;5.902;2023-07-13T15:10:24;21.37;51.94
67005;HTU21D;53920;51.094;5.902;2023-07-13T15:13:00;21.51;51.75
67005;HTU21D;53920;51.094;5.902;2023-07-13T15:15:30;21.52;51.56
67005;HTU21D;53920;51.094;5.902;2023-07-13T15:17:59;21.61;51.14
67005;HTU21D;53920;51.094;5.902;2023-07-13T15:20:31;21.72;51.01
67005;HTU21D;53920;51.094;5.902;2023-07-13T15:22:58;21.79;50.75
67005;HTU21D;53920;51.094;5.902;2023-07-13T15:25:27;21.81;50.41
67005;HTU21D;53920;51.094;5.902;2023-07-13T15:27:55;21.93;50.04
67005;HTU21D;53920;51.094;5.902;2023-07-13T15:30:22;22.08;49.52
67005;HTU21D;53920;51.094;5.902;2023-07-13T15:32:49;22.24;49.04
67005;HTU21D;53920;51.094;5.902;2023-07-13T15:35:19;22.39;48.57
67005;HTU21D;53920;51.094;5.902;2023-07-13T15:37:46;22.50;48.15
67005;HTU21D;53920;51.094;5.902;2023-07-13T15:40:13;22.68;47.59
67005;HTU21D;53920;51.094;5.902;2023-07-13T15:42:41;22.87;46.85
67005;HTU21D;53920;51.094;5.902;2023-07-13T15:45:21;23.03;46.42
67005;HTU21D;53920;51.094;5.902;2023-07-13T15:47:49;23.23;45.96
67005;HTU21D;53920;51.094;5.902;2023-07-13T15:50:22;23.42;45.41
67005;HTU21D;53920;51.094;5.902;2023-07-13T15:52:52;23.69;45.06
67005;HTU21D;53920;51.094;5.902;2023-07-13T15:55:19;23.90;44.27
67005;HTU21D;53920;51.094;5.902;2023-07-13T15:57:48;23.95;43.64
67005;HTU21D;53920;51.094;5.902;2023-07-13T16:00:23;23.94;43.54
67005;HTU21D;53920;51.094;5.902;2023-07-13T16:02:51;23.70;43.85
67005;HTU21D;53920;51.094;5.902;2023-07-13T16:05:18;23.51;44.19
67005;HTU21D;53920;51.094;5.902;2023-07-13T16:07:47;23.29;44.31
67005;HTU21D;53920;51.094;5.902;2023-07-13T16:10:22;23.09;44.62
67005;HTU21D;53920;51.094;5.902;2023-07-13T16:12:48;22.85;45.15